createdAt,value
2019-06-20T00:02:04.399Z,76.44
2019-06-20T00:04:39.114Z,76.36
2019-06-20T00:07:11.027Z,76.08
2019-06-20T00:09:42.795Z,75.35
2019-06-20T00:12:14.533Z,76.03
2019-06-20T00:14:46.271Z,75.29
2019-06-20T00:17:18.009Z,76.04
2019-06-20T00:19:50.688Z,76.61
2019-06-20T00:22:22.426Z,76.70
2019-06-20T00:24:54.191Z,76.66
2019-06-20T00:27:25.940Z,76.98
2019-06-20T00:29:57.804Z,76.11
2019-06-20T00:32:29.512Z,76.18
2019-06-20T00:35:01.372Z,76.65
2019-06-20T00:37:33.017Z,76.60
2019-06-20T00:40:11.243Z,75.93
2019-06-20T00:42:43.553Z,75.75
2019-06-20T00:45:15.947Z,75.95
2019-06-20T00:47:47.762Z,76.56
2019-06-20T00:50:20.423Z,76.81
2019-06-20T00:52:52.157Z,76.69
2019-06-20T00:55:24.255Z,76.52
2019-06-20T00:57:56.873Z,76.77
2019-06-20T01:00:29.773Z,77.59
2019-06-20T01:03:02.088Z,78.46
2019-06-20T01:05:34.064Z,78.14
2019-06-20T01:08:05.857Z,78.79
2019-06-20T01:10:37.856Z,78.46
2019-06-20T01:13:09.592Z,78.72
2019-06-20T01:15:41.372Z,79.08
2019-06-20T01:18:13.412Z,79.07
2019-06-20T01:20:46.106Z,79.51
2019-06-20T01:23:17.840Z,79.69
2019-06-20T01:25:49.607Z,79.38
2019-06-20T01:28:21.649Z,79.91
2019-06-20T01:30:53.508Z,80.66
2019-06-20T01:33:25.246Z,80.38
2019-06-20T01:35:57.007Z,79.73
2019-06-20T01:38:28.746Z,79.27
2019-06-20T01:41:00.772Z,78.90
2019-06-20T01:43:32.511Z,78.59
2019-06-20T01:46:04.371Z,78.20
2019-06-20T01:48:36.393Z,77.94
2019-06-20T01:51:08.157Z,77.72
2019-06-20T01:53:39.928Z,77.07
2019-06-20T01:56:11.633Z,76.55
2019-06-20T01:58:44.340Z,77.74
2019-06-20T02:01:16.277Z,78.21
2019-06-20T02:03:48.116Z,78.54
2019-06-20T02:06:19.996Z,79.07
2019-06-20T02:08:51.724Z,79.64
2019-06-20T02:11:23.485Z,79.79
2019-06-20T02:14:06.728Z,80.19
2019-06-20T02:16:28.777Z,79.81
2019-06-20T02:19:00.524Z,79.51
2019-06-20T02:21:33.228Z,79.04
2019-06-20T02:24:05.242Z,78.75
2019-06-20T02:26:37.109Z,78.21
2019-06-20T02:29:08.849Z,77.79
2019-06-20T02:31:40.616Z,77.46
2019-06-20T02:34:15.289Z,77.08
2019-06-20T02:36:47.530Z,76.63
2019-06-20T02:39:19.248Z,76.67
2019-06-20T02:41:51.009Z,76.86
2019-06-20T02:44:29.871Z,77.25
2019-06-20T02:46:56.764Z,77.57
2019-06-20T02:49:28.409Z,78.79
2019-06-20T02:52:00.803Z,79.30
2019-06-20T02:54:33.043Z,78.71
2019-06-20T02:57:04.910Z,79.15
2019-06-20T02:59:36.649Z,80.19
2019-06-20T03:02:08.423Z,80.37
2019-06-20T03:04:40.170Z,80.02
2019-06-20T03:07:11.929Z,80.98
2019-06-20T03:09:43.666Z,82.05
2019-06-20T03:12:15.669Z,82.62
2019-06-20T03:14:47.509Z,82.57
2019-06-20T03:17:19.283Z,82.61
2019-06-20T03:19:51.989Z,82.79
2019-06-20T03:22:24.564Z,82.22
2019-06-20T03:24:56.407Z,81.51
2019-06-20T03:27:28.159Z,80.97
2019-06-20T03:29:59.901Z,80.56
2019-06-20T03:32:31.677Z,80.27
2019-06-20T03:35:04.534Z,80.19
2019-06-20T03:37:37.177Z,80.64
2019-06-20T03:40:10.217Z,80.24
2019-06-20T03:42:41.963Z,79.58
2019-06-20T03:45:14.503Z,78.82
2019-06-20T03:47:46.256Z,78.61
2019-06-20T03:50:18.074Z,78.00
2019-06-20T03:52:51.451Z,75.27
2019-06-20T03:55:23.738Z,73.11
2019-06-20T03:57:55.404Z,73.55
2019-06-20T04:00:34.473Z,72.23
2019-06-20T04:03:08.471Z,72.05
2019-06-20T04:05:40.206Z,72.19
2019-06-20T04:08:12.099Z,71.61
2019-06-20T04:10:43.788Z,68.75
2019-06-20T04:13:16.737Z,64.57
2019-06-20T04:15:48.450Z,60.26
2019-06-20T04:18:20.212Z,56.47
2019-06-20T04:20:51.954Z,53.63
2019-06-20T04:23:24.681Z,51.14
2019-06-20T04:25:56.888Z,48.01
2019-06-20T04:28:28.847Z,46.09
2019-06-20T04:31:00.686Z,42.01
2019-06-20T04:33:32.658Z,39.71
2019-06-20T04:36:04.398Z,39.03
2019-06-20T04:38:36.176Z,40.52
2019-06-20T04:41:07.912Z,42.35
2019-06-20T04:43:39.681Z,41.94
2019-06-20T04:46:13.073Z,41.31
2019-06-20T04:48:44.763Z,38.39
2019-06-20T04:51:16.404Z,35.47
2019-06-20T04:53:48.266Z,33.87
2019-06-20T04:56:20.263Z,32.50
2019-06-20T04:58:52.127Z,30.82
2019-06-20T05:01:23.802Z,31.33
2019-06-20T05:03:55.568Z,35.33
2019-06-20T05:06:27.295Z,37.23
2019-06-20T05:08:59.147Z,38.77
2019-06-20T05:11:30.883Z,34.30
2019-06-20T05:14:03.831Z,31.86
2019-06-20T05:16:35.558Z,29.29
2019-06-20T05:19:07.431Z,27.81
2019-06-20T05:21:39.141Z,26.71
2019-06-20T05:24:11.793Z,25.75
2019-06-20T05:26:43.511Z,24.97
2019-06-20T05:29:17.082Z,24.91
2019-06-20T05:31:48.921Z,24.63
2019-06-20T05:34:27.826Z,24.41
2019-06-20T05:37:01.476Z,23.31
2019-06-20T05:39:33.102Z,23.79
2019-06-20T05:42:05.205Z,22.91
2019-06-20T05:44:36.946Z,22.21
2019-06-20T05:55:15.412Z,21.49
2019-06-20T05:57:47.221Z,21.59
2019-06-20T06:00:20.607Z,21.04
2019-06-20T06:02:52.654Z,20.71
2019-06-20T06:05:24.325Z,21.37
2019-06-20T06:07:56.142Z,21.11
2019-06-20T06:10:27.965Z,21.37
2019-06-20T06:13:03.096Z,21.36
2019-06-20T06:15:35.065Z,21.21
2019-06-20T06:18:08.083Z,20.70
2019-06-20T06:20:44.629Z,20.82
2019-06-20T06:23:14.633Z,20.46
2019-06-20T06:25:46.776Z,20.48
2019-06-20T06:28:18.462Z,20.44
2019-06-20T06:30:50.299Z,21.37
2019-06-20T06:33:22.234Z,22.00
2019-06-20T06:35:54.097Z,22.35
2019-06-20T06:38:28.950Z,23.43
2019-06-20T06:41:00.606Z,22.83
2019-06-20T06:43:32.344Z,22.94
2019-06-20T06:46:05.068Z,23.14
2019-06-20T06:48:36.799Z,22.92
2019-06-20T06:51:08.556Z,22.96
2019-06-20T06:53:40.297Z,23.54
2019-06-20T06:56:12.659Z,24.35
2019-06-20T06:58:44.496Z,24.04
2019-06-20T07:01:16.259Z,24.00
2019-06-20T07:03:48.000Z,24.47
2019-06-20T07:06:19.759Z,23.84
2019-06-20T07:08:51.533Z,23.02
2019-06-20T07:11:23.852Z,23.46
2019-06-20T07:13:55.672Z,23.33
2019-06-20T07:16:27.461Z,23.37
2019-06-20T07:18:59.208Z,24.31
2019-06-20T07:21:31.004Z,24.27
2019-06-20T07:24:02.640Z,24.57
2019-06-20T07:26:35.384Z,24.40
2019-06-20T07:29:07.190Z,24.35
2019-06-20T07:31:38.843Z,24.35
2019-06-20T07:34:10.605Z,24.93
2019-06-20T07:36:42.369Z,25.68
2019-06-20T07:39:14.136Z,25.28
2019-06-20T07:41:47.543Z,25.64
2019-06-20T07:44:19.545Z,24.54
2019-06-20T07:46:51.582Z,25.03
2019-06-20T07:49:23.330Z,24.71
2019-06-20T07:51:55.081Z,25.08
2019-06-20T07:54:26.823Z,25.55
2019-06-20T07:56:58.577Z,25.63
2019-06-20T07:59:30.350Z,23.88
2019-06-20T08:02:02.287Z,25.38
2019-06-20T08:04:35.141Z,24.82
2019-06-20T08:07:06.847Z,24.91
2019-06-20T08:09:44.678Z,24.57
2019-06-20T08:12:12.204Z,24.15
2019-06-20T08:14:43.932Z,25.54
2019-06-20T08:17:15.805Z,24.85
2019-06-20T08:19:47.555Z,24.82
2019-06-20T08:22:19.296Z,25.10
2019-06-20T08:24:53.207Z,24.91
2019-06-20T08:27:43.323Z,25.49
2019-06-20T08:30:15.397Z,25.45
2019-06-20T08:32:47.153Z,25.79
2019-06-20T08:35:22.511Z,25.88
2019-06-20T08:37:57.811Z,26.23
2019-06-20T08:40:33.110Z,25.46
2019-06-20T08:43:06.278Z,25.52
2019-06-20T08:45:40.934Z,25.99
2019-06-20T08:48:13.341Z,25.66
2019-06-20T08:50:45.611Z,25.98
2019-06-20T08:53:17.789Z,25.63
2019-06-20T08:55:49.917Z,25.48
2019-06-20T08:58:21.570Z,26.23
2019-06-20T09:00:55.924Z,26.12
2019-06-20T09:03:27.998Z,25.37
2019-06-20T09:08:32.987Z,24.14
2019-06-20T09:11:04.776Z,24.37
2019-06-20T09:13:36.539Z,25.37
2019-06-20T09:16:08.612Z,25.08
2019-06-20T09:18:40.413Z,25.72
2019-06-20T09:21:12.374Z,24.33
2019-06-20T09:23:44.311Z,24.30
2019-06-20T09:26:16.204Z,24.60
2019-06-20T09:28:50.992Z,24.78
2019-06-20T09:31:23.109Z,24.75
2019-06-20T09:33:55.821Z,24.24
2019-06-20T09:36:27.596Z,23.73
2019-06-20T09:38:59.613Z,24.43
2019-06-20T09:41:31.758Z,24.72
2019-06-20T09:44:03.515Z,24.53
2019-06-20T09:46:35.267Z,24.66
2019-06-20T09:49:07.036Z,25.29
2019-06-20T09:51:38.846Z,25.64
2019-06-20T09:54:10.593Z,26.32
2019-06-20T09:56:42.204Z,25.57
2019-06-20T09:59:27.137Z,24.74
2019-06-20T10:01:51.441Z,25.68
2019-06-20T10:04:25.871Z,26.08
2019-06-20T10:06:57.613Z,26.10
2019-06-20T10:09:29.710Z,26.72
2019-06-20T10:12:01.524Z,26.86
2019-06-20T10:14:33.398Z,26.62
2019-06-20T10:17:06.768Z,26.93
2019-06-20T10:19:39.746Z,27.27
2019-06-20T10:22:19.129Z,27.31
2019-06-20T10:24:52.059Z,26.63
2019-06-20T10:27:24.665Z,26.42
2019-06-20T10:30:10.651Z,26.14
2019-06-20T10:32:31.164Z,26.09
2019-06-20T10:35:03.018Z,25.39
2019-06-20T10:37:34.929Z,25.40
2019-06-20T10:40:10.558Z,25.45
2019-06-20T10:42:44.423Z,25.72
2019-06-20T10:45:17.485Z,25.86
2019-06-20T10:47:52.978Z,25.71
2019-06-20T10:50:28.265Z,25.31
2019-06-20T10:52:59.914Z,25.79
2019-06-20T10:55:31.874Z,27.09
2019-06-20T10:58:08.540Z,26.67
2019-06-20T11:00:50.312Z,28.09
2019-06-20T11:03:26.134Z,28.00
2019-06-20T11:06:08.615Z,26.14
2019-06-20T11:08:47.435Z,25.72
2019-06-20T11:11:19.688Z,25.12
2019-06-20T11:13:52.754Z,25.65
2019-06-20T11:16:32.569Z,24.76
2019-06-20T11:19:06.932Z,24.83
2019-06-20T11:21:39.805Z,24.48
2019-06-20T11:24:13.895Z,24.87
2019-06-20T11:26:45.982Z,24.61
2019-06-20T11:29:22.581Z,25.63
2019-06-20T11:31:55.354Z,26.02
2019-06-20T11:34:27.119Z,26.48
2019-06-20T11:36:58.877Z,27.16
2019-06-20T11:39:30.654Z,26.30
2019-06-20T11:42:02.393Z,26.46
2019-06-20T11:44:35.883Z,26.58
2019-06-20T11:47:10.340Z,26.35
2019-06-20T11:49:43.667Z,26.09
2019-06-20T11:52:17.240Z,25.26
2019-06-20T11:54:50.131Z,24.14
2019-06-20T11:57:21.831Z,24.43
2019-06-20T11:59:55.556Z,24.33
2019-06-20T12:02:36.107Z,24.74
2019-06-20T12:05:12.999Z,24.90
2019-06-20T12:07:47.714Z,24.77
2019-06-20T12:10:21.553Z,25.83
2019-06-20T12:12:57.982Z,25.54
2019-06-20T12:15:30.522Z,25.52
2019-06-20T12:18:02.270Z,24.70
2019-06-20T12:20:34.101Z,24.32
2019-06-20T12:23:05.909Z,24.56
2019-06-20T12:25:39.105Z,24.51
2019-06-20T12:28:11.164Z,25.29
2019-06-20T12:30:43.596Z,25.38
2019-06-20T12:33:18.814Z,26.21
2019-06-20T12:35:51.438Z,26.55
2019-06-20T12:38:23.082Z,27.31
2019-06-20T12:40:57.231Z,28.61
2019-06-20T12:43:29.760Z,29.35
2019-06-20T12:46:01.437Z,28.45
2019-06-20T12:48:34.149Z,27.55
2019-06-20T12:51:07.805Z,26.28
2019-06-20T12:53:48.159Z,26.08
2019-06-20T12:56:21.203Z,25.53
2019-06-20T12:58:52.888Z,24.39
2019-06-20T13:01:35.571Z,25.81
2019-06-20T13:03:58.271Z,26.05
2019-06-20T13:06:30.028Z,25.68
2019-06-20T13:09:01.761Z,25.50
2019-06-20T13:11:35.047Z,26.17
2019-06-20T13:14:06.926Z,26.65
2019-06-20T13:16:39.064Z,26.88
2019-06-20T13:19:11.283Z,27.46
2019-06-20T13:21:44.677Z,27.83
2019-06-20T13:24:16.376Z,27.41
2019-06-20T13:26:49.076Z,27.51
2019-06-20T13:29:21.713Z,26.21
2019-06-20T13:32:03.961Z,26.03
2019-06-20T13:34:28.864Z,25.40
2019-06-20T13:37:00.662Z,24.99
2019-06-20T13:39:32.712Z,25.70
2019-06-20T13:42:06.458Z,25.08
2019-06-20T13:44:39.622Z,24.82
2019-06-20T13:47:11.683Z,25.48
2019-06-20T13:49:43.405Z,25.52
2019-06-20T13:52:16.750Z,25.50
2019-06-20T13:54:49.922Z,26.87
2019-06-20T13:57:22.019Z,26.68
2019-06-20T13:59:54.532Z,26.84
2019-06-20T14:02:26.496Z,27.03
2019-06-20T14:04:59.865Z,27.03
2019-06-20T14:07:34.365Z,27.47
2019-06-20T14:10:09.195Z,27.40
2019-06-20T14:12:41.855Z,27.75
2019-06-20T14:15:14.746Z,28.18
2019-06-20T14:17:47.172Z,28.50
2019-06-20T14:20:20.410Z,28.96
2019-06-20T14:22:54.597Z,29.15
2019-06-20T14:25:26.775Z,29.26
2019-06-20T14:27:58.519Z,29.36
2019-06-20T14:30:31.390Z,30.31
2019-06-20T14:33:03.252Z,30.45
2019-06-20T14:35:35.192Z,30.69
2019-06-20T14:38:07.043Z,30.89
2019-06-20T14:40:39.516Z,31.00
2019-06-20T14:43:11.282Z,31.00
2019-06-20T14:45:43.860Z,31.17
2019-06-20T14:48:16.556Z,31.80
2019-06-20T14:50:49.520Z,32.15
2019-06-20T14:53:21.612Z,34.13
2019-06-20T14:55:53.947Z,37.57
2019-06-20T14:58:25.799Z,41.71
2019-06-20T15:00:58.786Z,48.98
2019-06-20T15:03:30.547Z,55.94
2019-06-20T15:06:02.290Z,56.61
2019-06-20T15:08:34.042Z,65.40
2019-06-20T15:11:05.969Z,65.40
2019-06-20T15:13:37.836Z,69.42
2019-06-20T15:16:09.574Z,67.92
2019-06-20T15:18:45.126Z,71.11
2019-06-20T15:21:15.302Z,69.68
2019-06-20T15:23:49.541Z,70.61
2019-06-20T15:26:23.408Z,71.93
2019-06-20T15:28:57.060Z,70.04
2019-06-20T15:31:29.345Z,74.53
2019-06-20T15:34:02.128Z,73.31
2019-06-20T15:36:34.719Z,75.15
2019-06-20T15:39:08.904Z,76.91
2019-06-20T15:41:40.639Z,77.34
2019-06-20T15:44:12.506Z,74.19
2019-06-20T15:46:44.241Z,71.46
2019-06-20T15:49:16.601Z,72.57
2019-06-20T15:51:48.642Z,72.02
2019-06-20T15:54:20.468Z,70.72
2019-06-20T15:56:52.160Z,71.51
2019-06-20T15:59:23.931Z,70.21
2019-06-20T16:01:55.742Z,70.48
2019-06-20T16:04:27.501Z,72.78
2019-06-20T16:06:59.234Z,73.67
2019-06-20T16:09:32.236Z,74.15
2019-06-20T16:12:04.126Z,71.84
2019-06-20T16:14:36.094Z,70.16
2019-06-20T16:17:08.034Z,68.98
2019-06-20T16:19:39.992Z,68.44
2019-06-20T16:22:12.020Z,67.96
2019-06-20T16:24:43.669Z,67.06
2019-06-20T16:27:15.423Z,66.04
2019-06-20T16:29:47.149Z,65.84
2019-06-20T16:32:20.125Z,62.25
2019-06-20T16:34:51.918Z,61.87
2019-06-20T16:37:24.569Z,62.28
2019-06-20T16:39:59.372Z,60.31
2019-06-20T16:42:31.223Z,62.97
2019-06-20T16:45:03.035Z,61.08
2019-06-20T16:47:34.946Z,61.79
2019-06-20T16:50:08.860Z,63.30
2019-06-20T16:52:41.687Z,62.11
2019-06-20T16:55:13.401Z,63.72
2019-06-20T16:57:45.135Z,62.87
2019-06-20T17:00:19.094Z,61.73
2019-06-20T17:02:50.837Z,62.46
2019-06-20T17:05:23.846Z,61.12
2019-06-20T17:07:55.564Z,59.87
2019-06-20T17:10:27.398Z,58.99
2019-06-20T17:12:59.014Z,62.17
2019-06-20T17:15:32.157Z,60.64
2019-06-20T17:18:03.816Z,58.64
2019-06-20T17:20:35.583Z,60.33
2019-06-20T17:23:07.415Z,60.63
2019-06-20T17:25:39.107Z,59.90
2019-06-20T17:28:10.832Z,61.41
2019-06-20T17:30:42.892Z,63.05
2019-06-20T17:33:14.653Z,62.61
2019-06-20T17:35:46.556Z,60.21
2019-06-20T17:38:19.380Z,56.35
2019-06-20T17:40:51.141Z,60.55
2019-06-20T17:43:22.899Z,56.79
2019-06-20T17:45:54.667Z,56.85
2019-06-20T17:48:27.397Z,55.47
2019-06-20T17:51:05.500Z,57.50
2019-06-20T17:53:33.999Z,53.09
2019-06-20T17:56:07.263Z,55.60
2019-06-20T17:58:38.979Z,53.16
2019-06-20T18:01:10.836Z,52.74
2019-06-20T18:03:42.870Z,50.90
2019-06-20T18:06:16.771Z,50.28
2019-06-20T18:08:48.709Z,50.44
2019-06-20T18:11:20.795Z,50.15
2019-06-20T18:13:52.920Z,49.60
2019-06-20T18:16:25.565Z,49.30
2019-06-20T18:18:57.778Z,47.80
2019-06-20T18:21:33.133Z,47.44
2019-06-20T18:24:09.266Z,47.05
2019-06-20T18:26:42.261Z,46.94
2019-06-20T18:29:18.087Z,47.21
2019-06-20T18:31:52.800Z,48.60
2019-06-20T18:34:30.618Z,47.88
2019-06-20T18:37:03.365Z,49.27
2019-06-20T18:39:36.855Z,50.25
2019-06-20T18:42:11.071Z,49.99
2019-06-20T18:44:45.173Z,52.90
2019-06-20T18:47:17.492Z,53.72
2019-06-20T18:49:49.441Z,54.37
2019-06-20T18:52:21.286Z,56.10
2019-06-20T18:54:54.693Z,56.42
2019-06-20T18:57:28.916Z,55.64
2019-06-20T19:00:01.051Z,56.92
2019-06-20T19:02:34.589Z,57.05
2019-06-20T19:05:11.889Z,57.42
2019-06-20T19:07:45.713Z,59.32
2019-06-20T19:10:22.756Z,62.04
2019-06-20T19:12:54.928Z,62.83
2019-06-20T19:15:27.228Z,64.03
2019-06-20T19:17:59.725Z,65.94
2019-06-20T19:20:31.709Z,66.83
2019-06-20T19:23:05.226Z,66.29
2019-06-20T19:25:38.150Z,66.82
2019-06-20T19:28:11.473Z,68.59
2019-06-20T19:30:54.428Z,68.06
2019-06-20T19:33:28.081Z,69.34
2019-06-20T19:36:00.106Z,69.15
2019-06-20T19:38:34.442Z,71.88
2019-06-20T19:41:12.041Z,71.62
2019-06-20T19:43:47.208Z,73.48
2019-06-20T19:46:22.504Z,73.99
2019-06-20T19:48:55.314Z,74.93
2019-06-20T19:51:45.079Z,74.28
2019-06-20T19:54:15.602Z,75.36
2019-06-20T19:56:47.548Z,75.78
2019-06-20T19:59:19.545Z,75.61
2019-06-20T20:01:51.317Z,77.33
2019-06-20T20:04:24.033Z,78.96
2019-06-20T20:06:56.261Z,78.15
2019-06-20T20:09:28.085Z,77.22
2019-06-20T20:12:02.531Z,78.88
2019-06-20T20:14:35.327Z,80.33
2019-06-20T20:17:11.377Z,79.95
2019-06-20T20:19:47.010Z,80.02
2019-06-20T20:22:31.544Z,81.74
2019-06-20T20:25:08.198Z,82.50
2019-06-20T20:27:43.150Z,82.50
2019-06-20T20:30:18.113Z,84.28
2019-06-20T20:32:50.830Z,83.56
2019-06-20T20:35:34.796Z,83.96
2019-06-20T20:37:58.577Z,84.60
2019-06-20T20:40:30.923Z,84.84
2019-06-20T20:43:03.149Z,85.66
2019-06-20T20:45:37.417Z,86.69
2019-06-20T20:48:10.806Z,84.89
2019-06-20T20:50:43.792Z,85.20
2019-06-20T20:53:22.133Z,85.55
2019-06-20T20:55:54.031Z,84.63
2019-06-20T20:58:30.534Z,86.11
2019-06-20T21:01:30.882Z,86.80
2019-06-20T21:04:04.674Z,87.24
2019-06-20T21:06:36.438Z,88.01
2019-06-20T21:09:08.840Z,87.11
2019-06-20T21:11:41.557Z,87.93
2019-06-20T21:14:13.340Z,86.79
2019-06-20T21:16:45.006Z,87.74
2019-06-20T21:19:16.773Z,87.25
2019-06-20T21:21:48.507Z,87.77
2019-06-20T21:24:20.281Z,88.28
2019-06-20T21:26:52.093Z,89.26
2019-06-20T21:29:23.848Z,89.74
2019-06-20T21:31:55.585Z,88.29
2019-06-20T21:34:28.854Z,88.82
2019-06-20T21:37:00.592Z,90.12
2019-06-20T21:39:32.355Z,90.18
2019-06-20T21:42:04.087Z,89.82
2019-06-20T21:44:36.098Z,90.96
2019-06-20T21:47:08.006Z,90.85
2019-06-20T21:49:39.773Z,91.80
2019-06-20T21:52:11.667Z,92.06
2019-06-20T21:54:43.560Z,91.93
2019-06-20T21:57:15.292Z,92.04
2019-06-20T21:59:47.061Z,92.29
2019-06-20T22:02:18.834Z,92.99
2019-06-20T22:04:54.404Z,93.13
2019-06-20T22:07:25.414Z,93.34
2019-06-20T22:09:57.243Z,92.73
2019-06-20T22:12:28.886Z,93.02
2019-06-20T22:15:01.888Z,93.63
2019-06-20T22:17:33.744Z,92.25
2019-06-20T22:20:07.659Z,93.11
2019-06-20T22:22:39.701Z,92.63
2019-06-20T22:25:11.868Z,93.53
2019-06-20T22:27:43.817Z,93.16
2019-06-20T22:30:16.689Z,93.16
2019-06-20T22:32:48.707Z,93.45
2019-06-20T22:35:22.831Z,92.99
2019-06-20T22:37:54.475Z,93.99
2019-06-20T22:40:27.883Z,93.94
2019-06-20T22:43:00.194Z,94.27
2019-06-20T22:45:32.831Z,94.20
2019-06-20T22:48:05.922Z,93.46
2019-06-20T22:50:37.914Z,94.27
2019-06-20T22:53:09.721Z,93.81
2019-06-20T22:55:41.454Z,94.25
2019-06-20T22:58:13.187Z,94.14
2019-06-20T23:00:45.804Z,94.77
2019-06-20T23:03:17.783Z,94.20
2019-06-20T23:05:49.980Z,95.67
2019-06-20T23:08:21.718Z,95.77
2019-06-20T23:10:53.494Z,95.90
2019-06-20T23:13:25.233Z,95.89
2019-06-20T23:15:56.992Z,95.70
2019-06-20T23:18:30.375Z,95.80
2019-06-20T23:21:04.861Z,95.99
2019-06-20T23:23:36.629Z,97.46
2019-06-20T23:26:10.359Z,98.37
2019-06-20T23:28:42.289Z,98.68
2019-06-20T23:31:14.057Z,99.48
2019-06-20T23:33:45.795Z,99.55
2019-06-20T23:36:17.551Z,99.69
2019-06-20T23:38:49.610Z,99.96
2019-06-20T23:41:21.359Z,99.76
2019-06-20T23:43:53.098Z,98.54
2019-06-20T23:46:25.805Z,98.14
2019-06-20T23:48:57.549Z,98.13
2019-06-20T23:51:30.897Z,97.91
2019-06-20T23:54:02.818Z,98.18
2019-06-20T23:56:35.941Z,99.67
2019-06-20T23:59:08.914Z,99.81
